DRI-NNSC Building Weather observations

Data are for 10 minute period ending at time listed.
 Day   Time   Solar   Ave.   Ave.  Ave.  Vector  Max.   Baro.   Total    
  of    of     Rad.   Air    Rel.  Wind   Wind   Wind  Press.  Precip.   
Year   Day            Temp.  Hum.  Speed  Dir.   Gust                    
2016   (PST)  Kw/m2    F      %     mph   deg.    mph    mb.     in.     
-------------------------------------------------------------------------
 204    9:30   0.78   78.3     0    1.9    35      6   854.3    0.00 
 204    9:40   0.81   79.7     0    3.8   158      8   854.3    0.00 
 204    9:50   0.83   80.1     0    4.1   173      8   854.3    0.00 
 204   10:00   0.85   80.2     0    4.1   175      8   854.3    0.00 
 204   10:10   0.87   80.4     0    5.4   157     11   854.3    0.00 
 204   10:20   0.89   80.7     0    4.6   158     11   854.3    0.00 
 204   10:30   0.90   81.8     0    4.2   141      9   854.2    0.00 
 204   10:40   0.92   82.4     0    5.0   143     11   854.2    0.00 
 204   10:50   0.93   83.3     0    3.3   148      9   854.1    0.00 
 204   11:00   0.94   84.1     0    2.5   246     10   854.1    0.00 
 204   11:10   0.95   84.2     0    4.5   224     11   854.0    0.00 
 204   11:20   0.96   84.1     0    3.4   261     11   853.9    0.00 
 204   11:30   0.97   84.4     0    3.7   213     11   853.9    0.00 
 204   11:40   0.98   85.3     0    8.5   251     18   853.8    0.00 
 204   11:50   0.98   84.9     0    9.3   231     20   853.7    0.00 
 204   12:00   0.99   84.9     0    8.8   224     18   853.6    0.00 
 204   12:10   0.99   86.2     0   10.6   238     20   853.5    0.00 
 204   12:20   0.99   86.8     0   10.9   262     21   853.5    0.00 
 204   12:30   0.99   86.3     0    9.9   258     22   853.5    0.00 
 204   12:40   0.99   86.4     0   11.0   226     23   853.4    0.00 
 204   12:50   0.98   86.3     0   12.9   230     24   853.3    0.00 
 204   13:00   0.98   86.3     0    8.7   212     18   853.3    0.00 
 204   13:10   0.96   86.6     0   12.9   226     22   853.2    0.00 
 204   13:20   0.96   86.7     0   13.0   232     22   853.2    0.00 
 204   13:30   0.95   87.4     0   12.2   241     22   853.1    0.00 
 204   13:40   0.94   87.1     0   12.5   243     23   853.0    0.00 
 204   13:50   0.93   87.8     0   13.4   234     25   852.9    0.00 
 204   14:00   0.91   87.9     0    9.4   258     20   852.9    0.00 
 204   14:10   0.90   87.8     0    9.3   252     18   852.8    0.00 
 204   14:20   0.88   87.7     0   10.6   241     21   852.8    0.00 
 204   14:30   0.86   87.9     0    9.7   255     21   852.7    0.00 
 204   14:40   0.84   88.0     0   11.3   252     21   852.7    0.00 
 204   14:50   0.82   87.9     0    9.7   269     19   852.6    0.00 
 204   15:00   0.79   87.7     0   10.7   281     19   852.6    0.00 
 204   15:10   0.77   87.5     0   10.6   282     21   852.6    0.00 
 204   15:20   0.75   87.8     0   10.8   269     19   852.5    0.00 
 204   15:30   0.72   87.8     0    9.2   257     18   852.5    0.00 
 204   15:40   0.69   87.3     0   10.9   282     20   852.5    0.00 
 204   15:50   0.66   87.4     0    8.8   278     17   852.5    0.00 
 204   16:00   0.63   87.3     0    9.8   274     19   852.5    0.00 
 204   16:10   0.60   87.0     0   10.6   279     19   852.5    0.00 
 204   16:20   0.57   87.0     0    8.8   270     16   852.5    0.00 
 204   16:30   0.54   86.8     0    9.6   290     17   852.4    0.00 
 204   16:40   0.50   86.5     0    9.5   276     16   852.4    0.00 
 204   16:50   0.47   86.4     0    9.5   289     16   852.3    0.00 
 204   17:00   0.43   85.9     0    9.4   279     18   852.3    0.00 
 204   17:10   0.40   86.1     0   10.2   274     18   852.4    0.00 
 204   17:20   0.37   85.7     0   10.5   281     18   852.4    0.00 
 204   17:30   0.34   85.0     0   10.4   271     19   852.4    0.00 
 204   17:40   0.30   84.9     0   10.8   274     20   852.3    0.00 
 204   17:50   0.27   84.5     0    9.8   269     17   852.3    0.00 
 204   18:00   0.23   84.6     0    8.0   264     15   852.3    0.00 
 204   18:10   0.20   84.1     0    9.9   264     17   852.4    0.00 
 204   18:20   0.17   83.5     0    9.6   269     18   852.4    0.00 
 204   18:30   0.14   83.2     0   10.0   265     16   852.3    0.00 
 204   18:40   0.11   82.6     0   10.5   257     18   852.3    0.00 
 204   18:50   0.09   81.9     0    9.1   253     17   852.3    0.00 
 204   19:00   0.06   81.1     0    8.7   248     18   852.3    0.00 
 204   19:10   0.03   80.0     0    6.6   255     13   852.5    0.00 
 204   19:20   0.01   79.1     0    6.2   272     12   852.7    0.00 
 204   19:30   0.01   77.5     0    4.2   296      8   852.8    0.00 
 204   19:40   0.00   76.9     0    5.1   319     10   852.9    0.00 
 204   19:50   0.00   76.1     0    6.0   324     11   853.0    0.00 
 204   20:00   0.00   75.7     0    7.5   328     12   853.1    0.00 
 204   20:10   0.00   75.5     0    8.7   336     14   853.2    0.00 
 204   20:20   0.00   75.0     0    9.5   341     15   853.4    0.00 
 204   20:30   0.00   74.5     0   10.0   343     16   853.6    0.00 
 204   20:40   0.00   74.1     0    9.5   344     16   853.6    0.00 
 204   20:50   0.00   74.2     0   10.6   340     19   853.6    0.00 
 204   21:00   0.00   74.0     0    9.5   332     17   853.7    0.00 
 204   21:10   0.00   73.4     0   10.2   337     17   853.7    0.00 
 204   21:20   0.00   72.7     0   10.8   324     18   853.7    0.00 
 204   21:30   0.00   71.8     0   10.8   319     18   853.6    0.00 
 204   21:40   0.00   71.7     0   11.9   325     19   853.5    0.00 
 204   21:50   0.00   71.3     0   10.5   326     16   853.5    0.00 
 204   22:00   0.00   70.5     0    8.4   314     14   853.5    0.00 
 204   22:10   0.00   71.6     0    7.3   318     13   853.5    0.00 
 204   22:20   0.00   72.7     0    9.7   329     18   853.5    0.00 
 204   22:30   0.00   72.3     0    9.2   330     17   853.5    0.00 
 204   22:40   0.00   70.3     0    7.7   332     13   853.6    0.00 
 204   22:50   0.00   68.3     0    7.8   332     14   853.5    0.00 
 204   23:00   0.00   67.9     0    8.3   326     14   853.5    0.00 
 204   23:10   0.00   68.1     0    8.7   324     15   853.5    0.00 
 204   23:20   0.00   69.3     0    9.9   337     20   853.5    0.00 
 204   23:30   0.00   68.8     0   10.1   332     18   853.5    0.00 
 204   23:40   0.00   68.4     0   10.9   336     18   853.5    0.00 
 204   23:50   0.00   68.5     0   12.1   342     19   853.5    0.00 
 205    0:00   0.00   68.0     0   10.4   336     17   853.6    0.00 
 205    0:10   0.00   67.6     0    8.3   334     15   853.6    0.00 
 205    0:20   0.00   66.9     0    4.6   326     10   853.7    0.00 
 205    0:30   0.00   65.7     0    1.4   156      3   853.7    0.00 
 205    0:40   0.00   65.7     0    1.9   284      6   853.7    0.00 
 205    0:50   0.00   65.8     0    3.7   340      6   853.6    0.00 
 205    1:00   0.00   65.3     0    3.7   341      6   853.5    0.00 
 205    1:10   0.00   65.1     0    2.3   208      4   853.5    0.00 
 205    1:20   0.00   64.4     0    1.0   170      2   853.5    0.00 
 205    1:30   0.00   64.7     0    1.8    84      4   853.4    0.00 
 205    1:40   0.00   65.9     0    4.1    52      5   853.4    0.00 
 205    1:50   0.00   65.4     0    5.5    40      6   853.3    0.00 
 205    2:00   0.00   66.2     0    4.6    43      6   853.3    0.00 
 205    2:10   0.00   66.9     0    3.6    42      5   853.1    0.00 
 205    2:20   0.00   64.6     0    1.9   140      4   853.1    0.00 
 205    2:30   0.00   66.1     0    3.9    80      5   853.0    0.00 
 205    2:40   0.00   66.5     0    2.9    72      4   853.0    0.00 
 205    2:50   0.00   65.1     0    0.8    78      3   853.0    0.00 
 205    3:00   0.00   63.2     0    1.0   135      2   852.9    0.00 
 205    3:10   0.00   62.3     0    0.9   122      3   852.9    0.00 
 205    3:20   0.00   62.3     0    1.1   342      2   852.9    0.00 
 205    3:30   0.00   62.7     0    1.2   265      3   852.9    0.00 
 205    3:40   0.00   60.8     0    0.4   198      2   852.8    0.00 
 205    3:50   0.00   60.7     0    1.9    40      3   852.8    0.00 
 205    4:00   0.00   60.6     1    2.6    61      3   852.9    0.00 
 205    4:10   0.00   60.7     1    1.2    49      3   852.9    0.00 
 205    4:20   0.00   59.9     0    0.6   338      2   852.9    0.00 
 205    4:30   0.00   60.1     0    0.3    32      2   852.9    0.00 
 205    4:40   0.00   60.8     0    0.6    68      2   853.0    0.00 
 205    4:50   0.00   60.9     0    3.2    66      4   852.9    0.00 
 205    5:00   0.00   60.5     0    2.8    55      4   852.9    0.00 
 205    5:10   0.01   59.6     0    0.9    36      3   853.0    0.00 
 205    5:20   0.01   58.8     0    1.0   289      2   853.0    0.00 
 205    5:30   0.01   58.4     0    0.7   159      2   853.1    0.00 
 205    5:40   0.05   58.5     0    1.9    73      3   853.2    0.00 
 205    5:50   0.11   59.6     0    1.3    44      2   853.2    0.00 
 205    6:00   0.13   60.8     0    0.6   242      1   853.1    0.00 
 205    6:10   0.16   61.4     0    0.4   225      2   853.2    0.00 
 205    6:20   0.19   63.9     0    0.9    67      3   853.3    0.00 
 205    6:30   0.22   61.9     0    2.5    75      4   853.4    0.00 
 205    6:40   0.26   64.0     0    1.0   104      2   853.4    0.00 
 205    6:50   0.29   65.9     0    0.1    56      1   853.4    0.00 
 205    7:00   0.32   66.9     0    1.2   117      3   853.4    0.00 
 205    7:10   0.35   66.2     0    1.8   157      3   853.4    0.00 
 205    7:20   0.39   66.5     0    2.1   170      3   853.3    0.00 
 205    7:30   0.42   66.1     0    1.5   162      3   853.4    0.00 
 205    7:40   0.45   67.4     0    1.8   164      4   853.3    0.00 
 205    7:50   0.48   67.1     0    2.4   172      4   853.3    0.00 
 205    8:00   0.52   68.0     0    2.1   159      5   853.4    0.00 
 205    8:10   0.55   68.8     0    2.1   167      4   853.2    0.00 
 205    8:20   0.58   69.7     0    1.8   161      4   853.3    0.00 
 205    8:30   0.61   70.3     0    2.7   153      5   853.2    0.00 
 205    8:40   0.64   71.2     0    3.0   168      6   853.2    0.00 
 205    8:50   0.67   72.2     0    2.8   149      4   853.1    0.00 
 205    9:00   0.69   72.9     0    2.4   137      5   853.1    0.00 
 205    9:10   0.72   73.6     0    2.3   119      6   853.1    0.00 
 205    9:20   0.75   74.3     0    3.3   108      6   853.0    0.00 

Return to NNSC graphs page.


Western Regional Climate Center,wrcc@dri.edu